Portada
METAR-TAF:

METAR-TAF

Aeroports :

Knoxville Municipal Airport

Knoxville, Iowa, Estats Units d'Amèrica

latitud: 41-18N, longitud: 093-07W, altitud: 283 m

Observació

L'informe es va fer fa 45 minuts, a les 14:15 UTC
Vent 7 kt del Sud/Sud-Est
Temperatura 0°C
Humitat 100%
Pressió 1009 hPa
Visibilitat: 4.8 km
Núvols disperses a una alçada de 13000 ft
boirina

METAR: KOXV 181415Z AUTO 15007KT 3SM BR SCT130 M00/M00 A2980 RMK AO2

Hora: 09:00 (15:00 UTC)


TAF: manca

Observacions i pronòstics meteorològics de més de 4000 aeroports (METAR i TAF).

Les estacions disponibles són els punts grocs i vermells al mapa.

Posi el ratolí al punt desitjat per veure el nom de l'estació.

Feu clic per veure les observacions i els pronòstics meteorològics.

Per canviar el mapa: feu clic els botons verds amb una creu de color negre per apropar; al botó verd amb un guió per allunyar la imatge; o en les fletxes verdes per a mapes adjacents.


METAR-TAF: